Time;durP1;ratioP1;P1;durP2;ratioP2;P2;SDS_P1;SDS_P2;PMS_P1;PMS_P2;Temp;Humidity;BMP_temperature;BMP_pressure;BME280_temperature;BME280_humidity;BME280_pressure;Samples;Min_cycle;Max_cycle;Signal;HPM_P1;HPM_P2
2021/06/22 00:02:11;;;;;;;21.10;9.50;;;;;;;-145.50;100.00;65435.88;4903795;29;20103;-50
2021/06/22 00:04:38;;;;;;;26.48;8.73;;;;;;;-145.50;100.00;65435.88;4911129;29;20160;-49
2021/06/22 00:07:04;;;;;;;22.05;8.43;;;;;;;-145.50;100.00;65435.88;4904860;29;20156;-50
2021/06/22 00:09:31;;;;;;;25.25;8.18;;;;;;;-145.50;100.00;65435.88;4920414;29;20167;-49
2021/06/22 00:11:57;;;;;;;29.83;9.32;;;;;;;-145.50;100.00;65435.88;4890899;29;20166;-49
2021/06/22 00:14:24;;;;;;;22.50;8.80;;;;;;;-145.50;100.00;65435.88;4908058;29;20159;-49
2021/06/22 00:16:50;;;;;;;26.80;8.43;;;;;;;-145.50;100.00;65435.88;4908847;29;20142;-50
2021/06/22 00:19:17;;;;;;;29.50;9.10;;;;;;;-145.50;100.00;65435.88;4906906;29;20107;-50
2021/06/22 00:21:43;;;;;;;20.55;8.95;;;;;;;-145.50;100.00;65435.88;4905142;29;20647;-50
2021/06/22 00:24:10;;;;;;;24.15;8.85;;;;;;;-145.50;100.00;65435.88;4903629;29;20572;-50
2021/06/22 00:26:36;;;;;;;23.00;8.65;;;;;;;-145.50;100.00;65435.88;4911402;29;20092;-51
2021/06/22 00:29:03;;;;;;;24.10;8.82;;;;;;;-145.50;100.00;65435.88;4904494;29;20102;-50
2021/06/22 00:31:30;;;;;;;26.83;8.52;;;;;;;-145.50;100.00;65435.88;4909997;29;20150;-49
2021/06/22 00:33:56;;;;;;;22.83;8.48;;;;;;;-145.50;100.00;65435.88;4900714;29;20058;-50
2021/06/22 00:36:23;;;;;;;24.17;10.75;;;;;;;-145.50;100.00;65435.88;4907143;29;20135;-49
2021/06/22 00:38:49;;;;;;;29.83;12.18;;;;;;;-145.50;100.00;65435.88;4908866;29;20091;-49
2021/06/22 00:41:16;;;;;;;23.27;8.73;;;;;;;-145.50;100.00;65435.88;4896510;29;20492;-50
2021/06/22 00:43:42;;;;;;;33.28;9.40;;;;;;;-145.50;100.00;65435.88;4893161;29;20092;-49
2021/06/22 00:46:08;;;;;;;30.10;9.52;;;;;;;-145.50;100.00;65435.88;4904977;29;20151;-49
2021/06/22 00:48:35;;;;;;;20.50;7.82;;;;;;;-145.50;100.00;65435.88;4893761;29;20052;-49
2021/06/22 00:51:02;;;;;;;27.60;8.88;;;;;;;-145.50;100.00;65435.88;4900258;29;20148;-49
2021/06/22 00:53:29;;;;;;;22.55;8.48;;;;;;;-145.50;100.00;65435.88;4896959;29;20172;-49
2021/06/22 00:55:55;;;;;;;26.10;9.60;;;;;;;-145.50;100.00;65435.88;4908270;29;20138;-49
2021/06/22 00:58:23;;;;;;;19.58;8.90;;;;;;;-145.50;100.00;65435.88;4884276;29;20163;-51
2021/06/22 01:00:51;;;;;;;25.63;10.15;;;;;;;-145.50;100.00;65435.88;4906807;29;20115;-50
2021/06/22 01:03:18;;;;;;;25.42;9.13;;;;;;;-145.50;100.00;65435.88;4898586;29;20091;-50
2021/06/22 01:05:45;;;;;;;27.98;9.60;;;;;;;-145.50;100.00;65435.88;4907572;29;20567;-49
2021/06/22 01:08:12;;;;;;;25.83;9.52;;;;;;;-145.50;100.00;65435.88;4904409;29;20131;-49
2021/06/22 01:10:39;;;;;;;25.85;9.90;;;;;;;-145.50;100.00;65435.88;4908374;29;20091;-49
2021/06/22 01:13:06;;;;;;;28.02;9.48;;;;;;;-145.50;100.00;65435.88;4908431;29;20169;-51
2021/06/22 01:15:32;;;;;;;27.55;8.32;;;;;;;-145.50;100.00;65435.88;4900880;29;20146;-50
2021/06/22 01:18:02;;;;;;;24.88;8.68;;;;;;;-145.50;100.00;65435.88;4904983;29;20083;-51
2021/06/22 01:20:31;;;;;;;21.83;8.95;;;;;;;-145.50;100.00;65435.88;4903412;29;20494;-50
2021/06/22 01:23:06;;;;;;;27.13;9.07;;;;;;;-145.50;100.00;65435.88;4907581;29;20060;-50
2021/06/22 01:25:34;;;;;;;32.92;9.43;;;;;;;-145.50;100.00;65435.88;4901987;29;20083;-49
2021/06/22 01:28:01;;;;;;;17.80;8.25;;;;;;;-145.50;100.00;65435.88;4908770;29;20094;-51
2021/06/22 01:30:30;;;;;;;19.27;8.63;;;;;;;-145.50;100.00;65435.88;4899439;29;20091;-49
2021/06/22 01:32:58;;;;;;;26.48;9.05;;;;;;;-145.50;100.00;65435.88;4906692;29;20151;-49
2021/06/22 01:35:27;;;;;;;24.85;8.98;;;;;;;-145.50;100.00;65435.88;4909403;29;20135;-50
2021/06/22 01:38:01;;;;;;;19.13;8.65;;;;;;;-145.50;100.00;65435.88;4892189;29;20075;-50
2021/06/22 01:40:28;;;;;;;23.40;8.90;;;;;;;-145.50;100.00;65435.88;4897847;29;20143;-53
2021/06/22 01:42:58;;;;;;;21.50;8.88;;;;;;;-145.50;100.00;65435.88;4880370;29;20091;-49
2021/06/22 01:45:25;;;;;;;21.00;8.73;;;;;;;-145.50;100.00;65435.88;4904096;29;20166;-50
2021/06/22 01:47:52;;;;;;;23.40;8.90;;;;;;;-145.50;100.00;65435.88;4902723;29;20175;-51
2021/06/22 01:50:21;;;;;;;21.00;8.05;;;;;;;-145.50;100.00;65435.88;4909134;29;20392;-48
2021/06/22 01:52:49;;;;;;;24.67;8.85;;;;;;;-145.50;100.00;65435.88;4887803;29;20060;-50
2021/06/22 01:58:03;;;;;;;19.23;8.95;;;;;;;-145.50;100.00;65435.88;4903766;29;20083;-50
2021/06/22 02:00:30;;;;;;;24.92;8.85;;;;;;;-145.50;100.00;65435.88;4887514;29;20139;-50
2021/06/22 02:02:56;;;;;;;28.13;9.25;;;;;;;-145.50;100.00;65435.88;4900482;29;20088;-50
2021/06/22 02:05:23;;;;;;;21.15;9.30;;;;;;;-145.50;100.00;65435.88;4899227;29;20739;-50
2021/06/22 02:07:50;;;;;;;19.53;9.30;;;;;;;-145.50;100.00;65435.88;4908598;29;20100;-49
2021/06/22 02:10:17;;;;;;;24.35;9.27;;;;;;;-145.50;100.00;65435.88;4902717;29;20163;-50
2021/06/22 02:12:43;;;;;;;21.73;9.52;;;;;;;-145.50;100.00;65435.88;4902649;29;20143;-50
2021/06/22 02:15:11;;;;;;;25.25;9.32;;;;;;;-145.50;100.00;65435.88;4907557;29;20056;-49
2021/06/22 02:17:37;;;;;;;21.85;9.02;;;;;;;-145.50;100.00;65435.88;4903162;29;20056;-50
2021/06/22 02:20:06;;;;;;;23.88;9.55;;;;;;;-145.50;100.00;65435.88;4909507;29;20087;-50
2021/06/22 02:22:33;;;;;;;21.70;8.95;;;;;;;-145.50;100.00;65435.88;4901987;29;20102;-50
2021/06/22 02:25:01;;;;;;;21.35;8.68;;;;;;;-145.50;100.00;65435.88;4905309;29;20147;-50
2021/06/22 02:27:30;;;;;;;25.50;9.00;;;;;;;-145.50;100.00;65435.88;4899294;29;20143;-50
2021/06/22 02:29:58;;;;;;;22.88;9.30;;;;;;;-145.50;100.00;65435.88;4895791;29;20566;-51
2021/06/22 02:32:25;;;;;;;24.58;9.20;;;;;;;-145.50;100.00;65435.88;4903574;29;20056;-50
2021/06/22 02:34:51;;;;;;;22.10;8.50;;;;;;;-145.50;100.00;65435.88;4907669;29;20056;-50
2021/06/22 02:37:18;;;;;;;22.42;8.95;;;;;;;-145.50;100.00;65435.88;4908596;29;20633;-51
2021/06/22 02:39:46;;;;;;;19.50;8.88;;;;;;;-145.50;100.00;65435.88;4896897;29;20048;-50
2021/06/22 02:42:12;;;;;;;24.77;10.15;;;;;;;-145.50;100.00;65435.88;4894750;29;20171;-50
2021/06/22 02:44:39;;;;;;;22.98;9.70;;;;;;;-145.50;100.00;65435.88;4891837;29;20096;-51
2021/06/22 02:47:05;;;;;;;24.40;8.75;;;;;;;-145.50;100.00;65435.88;4890103;29;20056;-51
2021/06/22 02:49:32;;;;;;;22.95;9.23;;;;;;;-145.50;100.00;65435.88;4894361;29;20092;-49
2021/06/22 02:51:59;;;;;;;18.10;8.88;;;;;;;-145.50;100.00;65435.88;4904181;29;20088;-50
2021/06/22 02:54:26;;;;;;;27.25;9.48;;;;;;;-145.50;100.00;65435.88;4905299;29;20556;-51
2021/06/22 02:56:53;;;;;;;27.73;9.73;;;;;;;-145.50;100.00;65435.88;4897829;29;20578;-52
2021/06/22 02:59:19;;;;;;;18.38;7.97;;;;;;;-145.50;100.00;65435.88;4897043;29;20494;-49
2021/06/22 03:01:46;;;;;;;24.83;9.32;;;;;;;-145.50;100.00;65435.88;4883540;29;20492;-50
2021/06/22 03:04:13;;;;;;;27.05;8.98;;;;;;;-145.50;100.00;65435.88;4891302;29;20048;-51
2021/06/22 03:06:39;;;;;;;17.48;8.20;;;;;;;-145.50;100.00;65435.88;4882714;29;20095;-51
2021/06/22 03:09:06;;;;;;;26.63;9.15;;;;;;;-145.50;100.00;65435.88;4891056;29;21703;-50
2021/06/22 03:11:32;;;;;;;24.15;8.75;;;;;;;-145.50;100.00;65435.88;4894498;29;20811;-50
2021/06/22 03:13:59;;;;;;;18.83;7.95;;;;;;;-145.50;100.00;65435.88;4897828;29;20180;-50
2021/06/22 03:16:25;;;;;;;19.35;8.50;;;;;;;-145.50;100.00;65435.88;4894448;29;20087;-50
2021/06/22 03:18:52;;;;;;;22.90;9.38;;;;;;;-145.50;100.00;65435.88;4899572;29;20420;-53
2021/06/22 03:21:18;;;;;;;24.55;8.98;;;;;;;-145.50;100.00;65435.88;4905083;29;20147;-51
2021/06/22 03:23:45;;;;;;;21.27;7.85;;;;;;;-145.50;100.00;65435.88;4905172;29;20163;-53
2021/06/22 03:26:13;;;;;;;20.63;8.35;;;;;;;-145.50;100.00;65435.88;4911071;29;20227;-50
2021/06/22 03:28:39;;;;;;;22.35;8.50;;;;;;;-145.50;100.00;65435.88;4912174;29;20130;-50
2021/06/22 03:31:06;;;;;;;24.33;9.27;;;;;;;-145.50;100.00;65435.88;4904788;29;20162;-50
2021/06/22 03:33:32;;;;;;;22.20;8.73;;;;;;;-145.50;100.00;65435.88;4892848;29;20516;-51
2021/06/22 03:35:59;;;;;;;24.60;8.73;;;;;;;-145.50;100.00;65435.88;4900078;29;20092;-52
2021/06/22 03:38:25;;;;;;;25.75;8.30;;;;;;;-145.50;100.00;65435.88;4910286;29;20134;-51
2021/06/22 03:40:52;;;;;;;16.38;8.00;;;;;;;-145.50;100.00;65435.88;4901254;29;20087;-50
2021/06/22 03:43:22;;;;;;;22.00;8.98;;;;;;;-145.50;100.00;65435.88;4899673;29;20095;-51
2021/06/22 03:45:48;;;;;;;22.80;9.25;;;;;;;-145.50;100.00;65435.88;4892591;29;20230;-50
2021/06/22 03:48:15;;;;;;;27.65;9.18;;;;;;;-145.50;100.00;65435.88;4888125;29;20163;-51
2021/06/22 03:50:41;;;;;;;25.67;9.35;;;;;;;-145.50;100.00;65435.88;4893953;29;20491;-50
2021/06/22 03:53:08;;;;;;;22.90;7.93;;;;;;;-145.50;100.00;65435.88;4896552;29;20155;-51
2021/06/22 03:55:34;;;;;;;26.98;8.88;;;;;;;-145.50;100.00;65435.88;4903032;29;20135;-51
2021/06/22 03:58:03;;;;;;;22.08;8.13;;;;;;;-145.50;100.00;65435.88;4896161;29;20870;-52
2021/06/22 04:00:29;;;;;;;;;;;;;;;-145.50;100.00;65435.88;4897282;29;20096;-50
2021/06/22 04:02:58;;;;;;;20.15;7.22;;;;;;;-145.50;100.00;65435.88;4900122;29;19959;-52
2021/06/22 04:05:26;;;;;;;23.00;7.57;;;;;;;-145.50;100.00;65435.88;4907968;29;20135;-51
2021/06/22 04:07:54;;;;;;;30.85;7.38;;;;;;;-145.50;100.00;65435.88;4909916;29;20134;-52
2021/06/22 04:10:21;;;;;;;28.20;8.25;;;;;;;-145.50;100.00;65435.88;4904917;29;20147;-50
2021/06/22 04:12:48;;;;;;;26.45;7.47;;;;;;;-145.50;100.00;65435.88;4909413;29;20404;-53
2021/06/22 04:15:15;;;;;;;22.23;7.70;;;;;;;-145.50;100.00;65435.88;4887149;29;20066;-51
2021/06/22 04:17:41;;;;;;;19.65;7.82;;;;;;;-145.50;100.00;65435.88;4910226;29;20127;-50
2021/06/22 04:20:08;;;;;;;22.55;8.07;;;;;;;-145.50;100.00;65435.88;4904279;29;20127;-50
2021/06/22 04:22:35;;;;;;;31.27;8.05;;;;;;;-145.50;100.00;65435.88;4898883;29;20140;-51
2021/06/22 04:25:02;;;;;;;23.73;8.65;;;;;;;-145.50;100.00;65435.88;4894375;29;20110;-51
2021/06/22 04:27:29;;;;;;;20.47;8.30;;;;;;;-145.50;100.00;65435.88;4895970;29;20063;-52
2021/06/22 04:29:56;;;;;;;25.58;10.00;;;;;;;-145.50;100.00;65435.88;4904849;29;20373;-50
2021/06/22 04:32:22;;;;;;;28.70;9.52;;;;;;;-145.50;100.00;65435.88;4904040;29;20059;-50
2021/06/22 04:34:49;;;;;;;27.63;10.00;;;;;;;-145.50;100.00;65435.88;4910734;29;20179;-51
2021/06/22 04:37:15;;;;;;;26.15;10.70;;;;;;;-145.50;100.00;65435.88;4903757;29;20103;-50
2021/06/22 04:39:42;;;;;;;21.80;9.90;;;;;;;-145.50;100.00;65435.88;4907048;29;20083;-51
2021/06/22 04:42:08;;;;;;;28.13;10.23;;;;;;;-145.50;100.00;65435.88;4904441;29;20515;-51
2021/06/22 04:44:35;;;;;;;29.63;10.50;;;;;;;-145.50;100.00;65435.88;4906415;29;20092;-50
2021/06/22 04:47:02;;;;;;;32.97;11.45;;;;;;;-145.50;100.00;65435.88;4898101;29;20532;-51
2021/06/22 04:49:29;;;;;;;28.40;11.02;;;;;;;-145.50;100.00;65435.88;4891514;29;20052;-50
2021/06/22 04:51:55;;;;;;;31.40;13.07;;;;;;;-145.50;100.00;65435.88;4898755;29;20092;-51
2021/06/22 04:54:23;;;;;;;23.75;10.65;;;;;;;-145.50;100.00;65435.88;4890388;29;20138;-52
2021/06/22 04:56:51;;;;;;;29.10;12.02;;;;;;;-145.50;100.00;65435.88;4900778;29;20135;-51
2021/06/22 04:59:17;;;;;;;25.77;11.60;;;;;;;-145.50;100.00;65435.88;4893778;29;20438;-51
2021/06/22 05:01:44;;;;;;;36.55;13.25;;;;;;;-145.50;100.00;65435.88;4897159;29;20147;-51
2021/06/22 05:04:12;;;;;;;28.33;12.07;;;;;;;-145.50;100.00;65435.88;4893004;29;20048;-51
2021/06/22 05:06:39;;;;;;;36.20;12.93;;;;;;;-145.50;100.00;65435.88;4883458;29;20131;-51
2021/06/22 05:09:05;;;;;;;30.65;12.10;;;;;;;-145.50;100.00;65435.88;4891599;29;20325;-51
2021/06/22 05:11:32;;;;;;;29.27;12.90;;;;;;;-145.50;100.00;65435.88;4879260;29;20060;-51
2021/06/22 05:13:58;;;;;;;27.40;11.85;;;;;;;-145.50;100.00;65435.88;4906366;29;20095;-51
2021/06/22 05:16:25;;;;;;;29.55;12.05;;;;;;;-145.50;100.00;65435.88;4904822;28;20135;-51
2021/06/22 05:18:51;;;;;;;27.77;14.10;;;;;;;-145.50;100.00;65435.88;4891325;29;20094;-53
2021/06/22 05:21:18;;;;;;;28.73;12.80;;;;;;;-145.50;100.00;65435.88;4901920;29;20150;-51
2021/06/22 05:23:44;;;;;;;35.45;13.35;;;;;;;-145.50;100.00;65435.88;4899209;29;20876;-51
2021/06/22 05:26:11;;;;;;;41.05;13.93;;;;;;;-145.50;100.00;65435.88;4905325;29;20497;-51
2021/06/22 05:28:37;;;;;;;30.73;14.05;;;;;;;-145.50;100.00;65435.88;4899805;29;20818;-50
2021/06/22 05:31:04;;;;;;;32.28;13.23;;;;;;;-145.50;100.00;65435.88;4899226;29;20685;-50
2021/06/22 05:33:30;;;;;;;35.15;13.13;;;;;;;-145.50;100.00;65435.88;4887284;29;20673;-50
2021/06/22 05:35:56;;;;;;;30.02;12.77;;;;;;;-145.50;100.00;65435.88;4888831;29;20135;-52
2021/06/22 05:38:23;;;;;;;29.90;12.68;;;;;;;-145.50;100.00;65435.88;4892011;29;20500;-53
2021/06/22 05:40:50;;;;;;;26.20;13.93;;;;;;;-145.50;100.00;65435.88;4889877;29;20139;-50
2021/06/22 05:43:16;;;;;;;32.92;13.75;;;;;;;-145.50;100.00;65435.88;4891925;29;20140;-50
2021/06/22 05:45:42;;;;;;;34.50;13.90;;;;;;;-145.50;100.00;65435.88;4902906;29;20084;-50
2021/06/22 05:48:09;;;;;;;33.72;13.93;;;;;;;-145.50;100.00;65435.88;4906617;29;20806;-51
2021/06/22 05:50:35;;;;;;;35.45;14.80;;;;;;;-145.50;100.00;65435.88;4894868;29;21029;-50
2021/06/22 05:53:02;;;;;;;29.17;13.82;;;;;;;-145.50;100.00;65435.88;4899277;29;20087;-50
2021/06/22 05:55:29;;;;;;;34.28;14.77;;;;;;;-145.50;100.00;65435.88;4909266;29;20155;-51
2021/06/22 05:58:00;;;;;;;30.60;14.40;;;;;;;-145.50;100.00;65435.88;4901605;29;20139;-50
2021/06/22 06:00:29;;;;;;;32.67;14.45;;;;;;;-145.50;100.00;65435.88;4905292;29;20064;-53
2021/06/22 06:02:56;;;;;;;33.30;14.05;;;;;;;-145.50;100.00;65435.88;4882366;29;20139;-51
2021/06/22 06:05:23;;;;;;;28.73;13.57;;;;;;;-145.50;100.00;65435.88;4890855;29;20048;-49
2021/06/22 06:07:52;;;;;;;37.15;15.43;;;;;;;-145.50;100.00;65435.88;4889951;29;20146;-53
2021/06/22 06:10:19;;;;;;;27.58;13.52;;;;;;;-145.50;100.00;65435.88;4902599;29;20143;-54
2021/06/22 06:12:46;;;;;;;36.45;13.73;;;;;;;-145.50;100.00;65435.88;4899329;29;20084;-50
2021/06/22 06:15:13;;;;;;;29.30;14.45;;;;;;;-145.50;100.00;65435.88;4899887;29;20255;-52
2021/06/22 06:17:40;;;;;;;40.47;14.20;;;;;;;-145.50;100.00;65435.88;4896017;29;20729;-49
2021/06/22 06:20:10;;;;;;;35.80;13.80;;;;;;;-145.50;100.00;65435.88;4890072;29;20556;-49
2021/06/22 06:22:38;;;;;;;34.15;14.18;;;;;;;-145.50;100.00;65435.88;4902733;29;20135;-50
2021/06/22 06:25:06;;;;;;;28.20;14.35;;;;;;;-145.50;100.00;65435.88;4902086;29;20389;-50
2021/06/22 06:30:16;;;;;;;36.15;15.60;;;;;;;-145.50;100.00;65435.88;4896175;29;20560;-49
2021/06/22 06:32:43;;;;;;;32.15;14.73;;;;;;;-145.50;100.00;65435.88;4903998;29;20163;-49
2021/06/22 06:35:10;;;;;;;31.70;15.18;;;;;;;-145.50;100.00;65435.88;4903290;29;20520;-48
2021/06/22 06:37:37;;;;;;;34.38;15.70;;;;;;;-145.50;100.00;65435.88;4900460;29;20493;-50
2021/06/22 06:40:05;;;;;;;34.38;16.60;;;;;;;-145.50;100.00;65435.88;4904914;29;20079;-49
2021/06/22 06:42:31;;;;;;;34.30;16.10;;;;;;;-145.50;100.00;65435.88;4892198;29;20135;-49
2021/06/22 06:44:59;;;;;;;36.78;15.32;;;;;;;-145.50;100.00;65435.88;4892403;29;21005;-49
2021/06/22 06:47:26;;;;;;;37.43;16.30;;;;;;;-145.50;100.00;65435.88;4887890;29;20142;-50
2021/06/22 06:49:52;;;;;;;33.08;15.13;;;;;;;-145.50;100.00;65435.88;4901260;29;20820;-49
2021/06/22 06:52:19;;;;;;;35.65;15.30;;;;;;;-145.50;100.00;65435.88;4906119;29;20346;-49
2021/06/22 06:54:46;;;;;;;34.35;16.55;;;;;;;-145.50;100.00;65435.88;4885442;29;20076;-49
2021/06/22 06:57:12;;;;;;;41.78;18.38;;;;;;;-145.50;100.00;65435.88;4901613;29;20168;-49
2021/06/22 06:59:39;;;;;;;41.72;17.23;;;;;;;-145.50;100.00;65435.88;4897717;29;20059;-49
2021/06/22 07:02:05;;;;;;;32.42;16.13;;;;;;;-145.50;100.00;65435.88;4899713;29;20399;-49
2021/06/22 07:04:33;;;;;;;29.88;16.40;;;;;;;-145.50;100.00;65435.88;4900281;29;20541;-52
2021/06/22 07:06:59;;;;;;;34.10;17.60;;;;;;;-145.50;100.00;65435.88;4910614;29;20079;-49
2021/06/22 07:09:26;;;;;;;33.67;18.48;;;;;;;-145.50;100.00;65435.88;4906365;29;20047;-51
2021/06/22 07:11:55;;;;;;;42.08;18.85;;;;;;;-145.50;100.00;65435.88;4902491;29;20143;-52
2021/06/22 07:14:23;;;;;;;38.28;17.42;;;;;;;-145.50;100.00;65435.88;4901426;29;20059;-49
2021/06/22 07:16:50;;;;;;;33.53;17.90;;;;;;;-145.50;100.00;65435.88;4903990;29;20087;-49
2021/06/22 07:19:18;;;;;;;34.75;17.27;;;;;;;-145.50;100.00;65435.88;4892717;29;20106;-49
2021/06/22 07:21:46;;;;;;;40.23;18.60;;;;;;;-145.50;100.00;65435.88;4897967;29;20074;-49
2021/06/22 07:24:12;;;;;;;31.53;17.57;;;;;;;-145.50;100.00;65435.88;4902272;29;20371;-49
2021/06/22 07:26:41;;;;;;;32.38;17.33;;;;;;;-145.50;100.00;65435.88;4896622;29;20155;-49
2021/06/22 07:29:08;;;;;;;38.97;18.27;;;;;;;-145.50;100.00;65435.88;4902141;29;20094;-50
2021/06/22 07:31:35;;;;;;;34.83;17.02;;;;;;;-145.50;100.00;65435.88;4911242;29;20056;-48
2021/06/22 07:34:02;;;;;;;43.13;17.98;;;;;;;-145.50;100.00;65435.88;4903348;29;20420;-49
2021/06/22 07:36:29;;;;;;;40.85;19.60;;;;;;;-145.50;100.00;65435.88;4910594;29;20062;-48
2021/06/22 07:38:55;;;;;;;39.45;19.30;;;;;;;-145.50;100.00;65435.88;4905321;29;20144;-52
2021/06/22 07:41:22;;;;;;;30.10;18.15;;;;;;;-145.50;100.00;65435.88;4903948;29;20143;-49
2021/06/22 07:43:49;;;;;;;45.13;18.25;;;;;;;-145.50;100.00;65435.88;4903295;29;20143;-49
2021/06/22 07:46:16;;;;;;;34.85;18.83;;;;;;;-145.50;100.00;65435.88;4911644;29;20510;-49
2021/06/22 07:48:43;;;;;;;39.00;18.55;;;;;;;-145.50;100.00;65435.88;4910061;29;20134;-48
2021/06/22 07:51:10;;;;;;;42.90;19.52;;;;;;;-145.50;100.00;65435.88;4906760;29;20504;-49
2021/06/22 07:53:36;;;;;;;40.35;20.13;;;;;;;-145.50;100.00;65435.88;4906047;29;20056;-49
2021/06/22 07:56:03;;;;;;;42.83;18.90;;;;;;;-145.50;100.00;65435.88;4901005;29;20569;-51
2021/06/22 07:58:29;;;;;;;42.78;19.33;;;;;;;-145.50;100.00;65435.88;4910788;29;20060;-49
2021/06/22 08:00:56;;;;;;;34.97;17.50;;;;;;;-145.50;100.00;65435.88;4904964;29;20135;-49
2021/06/22 08:03:24;;;;;;;38.80;18.85;;;;;;;-145.50;100.00;65435.88;4910936;29;20477;-49
2021/06/22 08:05:52;;;;;;;40.83;20.50;;;;;;;-145.50;100.00;65435.88;4905467;29;20420;-48
2021/06/22 08:08:21;;;;;;;40.65;21.00;;;;;;;-145.50;100.00;65435.88;4907502;29;20464;-48
2021/06/22 08:10:53;;;;;;;37.67;19.90;;;;;;;-145.50;100.00;65435.88;4907462;29;20194;-49
2021/06/22 08:13:21;;;;;;;41.45;20.33;;;;;;;-145.50;100.00;65435.88;4904132;29;20056;-49
2021/06/22 08:15:48;;;;;;;44.60;20.05;;;;;;;-145.50;100.00;65435.88;4911056;29;20201;-50
2021/06/22 08:18:15;;;;;;;34.30;19.63;;;;;;;-145.50;100.00;65435.88;4905703;29;20455;-48
2021/06/22 08:20:43;;;;;;;37.78;20.13;;;;;;;-145.50;100.00;65435.88;4910353;29;20135;-49
2021/06/22 08:23:10;;;;;;;43.40;20.35;;;;;;;-145.50;100.00;65435.88;4899089;29;20612;-49
2021/06/22 08:25:38;;;;;;;41.13;21.67;;;;;;;-145.50;100.00;65435.88;4891789;29;20139;-48
2021/06/22 08:28:05;;;;;;;39.35;21.05;;;;;;;-145.50;100.00;65435.88;4910329;29;20448;-48
2021/06/22 08:30:32;;;;;;;41.15;21.17;;;;;;;-145.50;100.00;65435.88;4904078;29;20147;-48
2021/06/22 08:32:59;;;;;;;40.97;21.05;;;;;;;-145.50;100.00;65435.88;4910046;29;20456;-53
2021/06/22 08:35:26;;;;;;;43.78;21.63;;;;;;;-145.50;100.00;65435.88;4896482;29;20111;-47
2021/06/22 08:37:54;;;;;;;37.55;21.70;;;;;;;-145.50;100.00;65435.88;4905007;29;20543;-50
2021/06/22 08:40:20;;;;;;;36.28;21.95;;;;;;;-145.50;100.00;65435.88;4888609;29;20096;-50
2021/06/22 08:42:47;;;;;;;40.60;21.85;;;;;;;-145.50;100.00;65435.88;4910076;29;20098;-48
2021/06/22 08:45:16;;;;;;;45.97;22.92;;;;;;;-145.50;100.00;65435.88;4909619;29;20933;-51
2021/06/22 08:47:43;;;;;;;47.42;22.58;;;;;;;-145.50;100.00;65435.88;4905055;29;20056;-48
2021/06/22 08:50:11;;;;;;;42.42;20.98;;;;;;;-145.50;100.00;65435.88;4906144;29;20441;-53
2021/06/22 08:52:38;;;;;;;33.92;20.45;;;;;;;-145.50;100.00;65435.88;4900384;29;20480;-50
2021/06/22 08:55:07;;;;;;;39.33;21.88;;;;;;;-145.50;100.00;65435.88;4908939;29;20154;-50
2021/06/22 08:57:35;;;;;;;35.33;20.90;;;;;;;-145.50;100.00;65435.88;4891566;29;20171;-48
2021/06/22 09:00:04;;;;;;;40.13;21.50;;;;;;;-145.50;100.00;65435.88;4893132;29;20472;-49
2021/06/22 09:02:33;;;;;;;42.00;21.30;;;;;;;-145.50;100.00;65435.88;4897722;29;20091;-51
2021/06/22 09:05:00;;;;;;;37.03;19.77;;;;;;;-145.50;100.00;65435.88;4902871;29;20095;-49
2021/06/22 09:07:43;;;;;;;41.55;18.33;;;;;;;-145.50;100.00;65435.88;4903212;29;20103;-51
2021/06/22 09:10:19;;;;;;;44.33;20.38;;;;;;;-145.50;100.00;65435.88;4901913;29;20095;-49
2021/06/22 09:12:46;;;;;;;36.28;20.05;;;;;;;-145.50;100.00;65435.88;4908849;29;20164;-48
2021/06/22 09:15:32;;;;;;;38.00;20.38;;;;;;;-145.50;100.00;65435.88;4903749;29;20400;-48
2021/06/22 09:17:59;;;;;;;32.45;19.77;;;;;;;-145.50;100.00;65435.88;4905478;29;20127;-49
2021/06/22 09:20:32;;;;;;;38.85;20.33;;;;;;;-145.50;100.00;65435.88;4899807;29;20147;-49
2021/06/22 09:23:04;;;;;;;35.15;20.88;;;;;;;-145.50;100.00;65435.88;4908136;29;20486;-50
2021/06/22 09:25:34;;;;;;;33.92;20.27;;;;;;;-145.50;100.00;65435.88;4885697;29;20102;-50
2021/06/22 09:28:00;;;;;;;40.88;20.50;;;;;;;-145.50;100.00;65435.88;4908874;29;20060;-49
2021/06/22 09:30:54;;;;;;;33.25;19.75;;;;;;;-145.50;100.00;65435.88;4909322;29;20052;-49
2021/06/22 09:33:26;;;;;;;37.95;19.88;;;;;;;-145.50;100.00;65435.88;4902764;29;20060;-49
2021/06/22 09:35:57;;;;;;;39.80;20.00;;;;;;;-145.50;100.00;65435.88;4908087;29;20152;-49
2021/06/22 09:38:28;;;;;;;38.60;20.67;;;;;;;-145.50;100.00;65435.88;4903359;29;20139;-49
2021/06/22 09:41:06;;;;;;;33.60;20.02;;;;;;;-145.50;100.00;65435.88;4908536;29;20104;-50
2021/06/22 09:43:37;;;;;;;36.70;21.23;;;;;;;-145.50;100.00;65435.88;4901375;29;20063;-48
2021/06/22 09:46:06;;;;;;;34.95;20.95;;;;;;;-145.50;100.00;65435.88;4878891;29;20572;-50
2021/06/22 09:48:57;;;;;;;42.83;19.85;;;;;;;-145.50;100.00;65435.88;4901230;29;20071;-51
2021/06/22 09:51:31;;;;;;;36.38;21.23;;;;;;;-145.50;100.00;65435.88;4909076;29;20138;-50
2021/06/22 09:54:12;;;;;;;36.53;20.65;;;;;;;-145.50;100.00;65435.88;4887770;29;20144;-50
2021/06/22 09:56:54;;;;;;;40.10;20.77;;;;;;;-145.50;100.00;65435.88;4897192;29;20087;-52
2021/06/22 09:59:21;;;;;;;34.75;21.25;;;;;;;-145.50;100.00;65435.88;4897779;29;20095;-49
2021/06/22 10:01:48;;;;;;;33.63;20.85;;;;;;;-145.50;100.00;65435.88;4888358;29;20107;-49
2021/06/22 10:04:18;;;;;;;36.38;23.02;;;;;;;-145.50;100.00;65435.88;4909029;29;20579;-50
2021/06/22 10:06:57;;;;;;;34.58;21.95;;;;;;;-145.50;100.00;65435.88;4903247;29;20090;-51
2021/06/22 10:09:33;;;;;;;33.55;21.20;;;;;;;-145.50;100.00;65435.88;4898099;29;20135;-49
2021/06/22 10:12:03;;;;;;;33.88;18.92;;;;;;;-145.50;100.00;65435.88;4898588;29;20079;-50
2021/06/22 10:14:36;;;;;;;32.92;18.90;;;;;;;-145.50;100.00;65435.88;4900695;29;20140;-50
2021/06/22 10:17:07;;;;;;;30.50;19.65;;;;;;;-145.50;100.00;65435.88;4902610;29;20064;-49
2021/06/22 10:19:38;;;;;;;32.25;19.98;;;;;;;-145.50;100.00;65435.88;4900595;29;20511;-50
2021/06/22 10:22:06;;;;;;;34.90;20.90;;;;;;;-145.50;100.00;65435.88;4900212;29;20095;-49
2021/06/22 10:24:35;;;;;;;30.77;20.00;;;;;;;-145.50;100.00;65435.88;4914920;29;20084;-48
2021/06/22 10:27:02;;;;;;;36.15;19.92;;;;;;;-145.50;100.00;65435.88;4901067;29;20139;-50
2021/06/22 10:29:31;;;;;;;29.83;19.20;;;;;;;-145.50;100.00;65435.88;4895590;29;20079;-49
2021/06/22 10:31:59;;;;;;;35.08;19.30;;;;;;;-145.50;100.00;65435.88;4913679;29;20405;-49
2021/06/22 10:34:27;;;;;;;34.85;19.67;;;;;;;-145.50;100.00;65435.88;4909805;29;20056;-51
2021/06/22 10:37:14;;;;;;;28.55;18.60;;;;;;;-145.50;100.00;65435.88;4914418;29;20143;-49
2021/06/22 10:39:51;;;;;;;30.00;19.13;;;;;;;-145.50;100.00;65435.88;4905647;29;20548;-50
2021/06/22 10:42:18;;;;;;;31.50;18.85;;;;;;;-145.50;100.00;65435.88;4911383;29;20056;-50
2021/06/22 10:44:49;;;;;;;35.73;17.73;;;;;;;-145.50;100.00;65435.88;4909761;29;20152;-50
2021/06/22 10:47:22;;;;;;;33.00;18.90;;;;;;;-145.50;100.00;65435.88;4911123;29;20135;-50
2021/06/22 10:49:59;;;;;;;36.13;18.65;;;;;;;-145.50;100.00;65435.88;4911983;29;20087;-50
2021/06/22 10:52:41;;;;;;;35.78;19.08;;;;;;;-145.50;100.00;65435.88;4910269;29;20131;-51
2021/06/22 10:55:19;;;;;;;30.55;16.60;;;;;;;-145.50;100.00;65435.88;4910890;29;20052;-50
2021/06/22 10:58:11;;;;;;;26.38;16.60;;;;;;;-145.50;100.00;65435.88;4908100;29;20056;-52
2021/06/22 11:00:57;;;;;;;26.63;15.32;;;;;;;-145.50;100.00;65435.88;4912185;29;20091;-50
2021/06/22 11:03:34;;;;;;;36.97;17.45;;;;;;;-145.50;100.00;65435.88;4906675;29;20143;-50
2021/06/22 11:06:10;;;;;;;29.57;16.73;;;;;;;-145.50;100.00;65435.88;4910429;29;20055;-50
2021/06/22 11:08:38;;;;;;;29.50;16.17;;;;;;;-145.50;100.00;65435.88;4905551;29;20094;-49